Time,TemperatureF,DewpointF,PressureIn,WindDirection,WindDirectionDegrees,WindSpeedMPH,WindSpeedGustMPH,Humidity,HourlyPrecipIn,Conditions,Clouds,dailyrainin,SoftwareType,DateUTC
2013-05-08 17:40:00,55.4,53.7,29.91,North,0,0.0,0.0,94,0.20,CLR,,0.32,WeatherDisplay:10.37,2013-05-08 21:40:00,
2013-05-08 17:41:00,55.4,53.7,29.91,North,0,0.0,0.0,94,0.20,CLR,,0.32,WeatherDisplay:10.37,2013-05-08 21:41:00,
2013-05-08 17:46:00,55.3,53.6,29.91,North,0,0.0,0.0,94,0.21,RA,,0.33,WeatherDisplay:10.37,2013-05-08 21:46:00,
2013-05-08 17:51:00,55.1,53.4,29.91,North,0,0.0,0.0,94,0.21,RA,,0.34,WeatherDisplay:10.37,2013-05-08 21:51:00,
2013-05-08 17:56:00,55.1,53.7,29.91,North,0,0.0,0.0,95,0.20,RA,,0.35,WeatherDisplay:10.37,2013-05-08 21:56:00,
2013-05-08 18:01:00,55.2,53.8,29.91,North,0,0.0,0.0,95,0.17,RA,,0.35,WeatherDisplay:10.37,2013-05-08 22:01:00,
2013-05-08 18:06:00,55.3,53.9,29.91,North,0,0.0,0.0,95,0.14,,,0.35,WeatherDisplay:10.37,2013-05-08 22:06:00,
2013-05-08 18:11:00,55.3,53.9,29.91,North,0,0.0,0.0,95,0.13,RA,,0.36,WeatherDisplay:10.37,2013-05-08 22:11:00,
2013-05-08 18:16:00,55.4,54.3,29.91,North,0,0.0,0.0,96,0.11,RA,,0.36,WeatherDisplay:10.37,2013-05-08 22:16:00,
2013-05-08 18:21:00,55.4,54.3,29.91,North,0,0.0,0.0,96,0.09,CLR,,0.36,WeatherDisplay:10.37,2013-05-08 22:21:00,
2013-05-08 18:26:00,55.4,54.3,29.91,North,0,0.0,0.0,96,0.06,CLR,,0.36,WeatherDisplay:10.37,2013-05-08 22:26:00,
2013-05-08 18:31:00,55.5,54.4,29.91,North,0,0.0,0.0,96,0.04,CLR,,0.36,WeatherDisplay:10.37,2013-05-08 22:31:00,
2013-05-08 18:36:00,55.6,54.5,29.91,North,0,0.0,0.0,96,0.04,CLR,,0.36,WeatherDisplay:10.37,2013-05-08 22:36:00,
2013-05-08 18:41:00,55.7,54.6,29.91,North,0,0.0,0.0,96,0.04,CLR,,0.36,WeatherDisplay:10.37,2013-05-08 22:41:00,
2013-05-08 18:46:00,55.7,54.6,29.91,North,0,0.0,0.0,96,0.03,CLR,,0.36,WeatherDisplay:10.37,2013-05-08 22:46:00,
2013-05-08 18:51:00,55.6,54.5,29.90,North,0,0.0,0.0,96,0.02,CLR,,0.36,WeatherDisplay:10.37,2013-05-08 22:51:00,
2013-05-08 18:56:00,55.5,54.1,29.90,North,0,0.0,0.0,95,0.01,CLR,,0.36,WeatherDisplay:10.37,2013-05-08 22:56:00,
2013-05-08 19:01:00,55.4,54.0,29.91,North,0,0.0,0.0,95,0.01,CLR,,0.36,WeatherDisplay:10.37,2013-05-08 23:01:00,
2013-05-08 19:06:00,55.4,54.0,29.90,North,0,0.0,0.0,95,0.01,CLR,,0.36,WeatherDisplay:10.37,2013-05-08 23:06:00,
2013-05-08 19:11:00,55.4,54.0,29.90,North,0,0.0,0.0,95,0.00,CLR,,0.36,WeatherDisplay:10.37,2013-05-08 23:11:00,
2013-05-08 19:16:00,55.3,54.2,29.90,North,0,0.0,0.0,96,0.00,CLR,,0.36,WeatherDisplay:10.37,2013-05-08 23:16:00,
2013-05-08 19:21:00,55.3,54.2,29.90,North,0,0.0,0.0,96,0.00,CLR,,0.36,WeatherDisplay:10.37,2013-05-08 23:21:00,
2013-05-08 19:26:00,55.3,54.2,29.90,North,0,0.0,0.0,96,0.00,CLR,,0.36,WeatherDisplay:10.37,2013-05-08 23:26:00,
2013-05-08 19:31:00,55.5,54.4,29.90,North,0,0.0,0.0,96,0.00,CLR,,0.36,WeatherDisplay:10.37,2013-05-08 23:31:00,
2013-05-08 19:36:00,55.5,54.1,29.90,North,0,0.0,0.0,95,0.00,CLR,,0.36,WeatherDisplay:10.37,2013-05-08 23:36:00,
2013-05-08 19:41:00,55.5,54.1,29.91,North,0,0.0,0.0,95,0.00,CLR,,0.36,WeatherDisplay:10.37,2013-05-08 23:41:00,
2013-05-08 19:46:00,55.5,53.8,29.90,North,0,0.0,0.0,94,0.00,CLR,,0.36,WeatherDisplay:10.37,2013-05-08 23:46:00,
2013-05-08 19:51:00,55.6,53.9,29.91,North,0,0.0,0.0,94,0.00,CLR,,0.36,WeatherDisplay:10.37,2013-05-08 23:51:00,
2013-05-08 19:56:00,55.6,53.9,29.91,North,0,0.0,0.0,94,0.00,CLR,,0.36,WeatherDisplay:10.37,2013-05-08 23:56:00,
2013-05-08 20:01:00,55.5,53.8,29.91,North,0,0.0,0.0,94,0.00,CLR,,0.36,WeatherDisplay:10.37,2013-05-09 00:01:00,
2013-05-08 20:06:00,55.3,53.9,29.91,North,0,0.0,0.0,95,0.00,CLR,,0.36,WeatherDisplay:10.37,2013-05-09 00:06:00,
2013-05-08 20:11:00,55.2,53.8,29.91,North,0,0.0,0.0,95,0.00,CLR,,0.36,WeatherDisplay:10.37,2013-05-09 00:11:00,
2013-05-08 20:16:00,55.0,53.6,29.92,North,0,0.0,0.0,95,0.00,CLR,,0.36,WeatherDisplay:10.37,2013-05-09 00:16:00,
2013-05-08 20:21:00,54.9,53.5,29.92,North,0,0.0,0.0,95,0.00,CLR,,0.36,WeatherDisplay:10.37,2013-05-09 00:21:00,
2013-05-08 20:26:00,54.8,53.4,29.92,North,0,0.0,0.0,95,0.00,CLR,,0.36,WeatherDisplay:10.37,2013-05-09 00:26:00,
2013-05-08 20:31:00,54.6,53.2,29.92,North,0,0.0,0.0,95,0.00,CLR,,0.36,WeatherDisplay:10.37,2013-05-09 00:31:00,
2013-05-08 20:36:00,54.4,53.3,29.93,North,0,0.0,0.0,96,0.00,CLR,,0.36,WeatherDisplay:10.37,2013-05-09 00:36:00,
2013-05-08 20:41:00,54.3,53.2,29.93,North,0,0.0,0.0,96,0.00,CLR,,0.36,WeatherDisplay:10.37,2013-05-09 00:41:00,
2013-05-08 20:46:00,54.1,53.0,29.93,North,0,0.0,0.0,96,0.00,CLR,,0.36,WeatherDisplay:10.37,2013-05-09 00:46:00,
2013-05-08 20:51:00,53.8,52.7,29.93,North,0,0.0,0.0,96,0.00,CLR,,0.36,WeatherDisplay:10.37,2013-05-09 00:51:00,
2013-05-08 20:56:00,53.5,52.4,29.93,North,0,0.0,0.0,96,0.00,CLR,,0.36,WeatherDisplay:10.37,2013-05-09 00:56:00,
2013-05-08 21:01:00,53.3,52.2,29.93,North,0,0.0,0.0,96,0.00,CLR,,0.36,WeatherDisplay:10.37,2013-05-09 01:01:00,
2013-05-08 21:06:00,52.9,51.8,29.93,North,0,0.0,0.0,96,0.00,CLR,,0.36,WeatherDisplay:10.37,2013-05-09 01:06:00,
2013-05-08 21:11:00,52.8,51.7,29.93,North,0,0.0,0.0,96,0.00,CLR,,0.36,WeatherDisplay:10.37,2013-05-09 01:11:00,
2013-05-08 21:16:00,52.9,51.8,29.93,North,0,0.0,0.0,96,0.00,CLR,,0.36,WeatherDisplay:10.37,2013-05-09 01:16:00,
2013-05-08 21:21:00,53.0,51.9,29.93,North,0,0.0,0.0,96,0.00,CLR,,0.36,WeatherDisplay:10.37,2013-05-09 01:21:00,
2013-05-08 21:26:00,52.9,51.8,29.93,North,0,0.0,0.0,96,0.00,CLR,,0.36,WeatherDisplay:10.37,2013-05-09 01:26:00,
2013-05-08 21:31:00,52.9,51.8,29.93,North,0,0.0,0.0,96,0.00,CLR,,0.36,WeatherDisplay:10.37,2013-05-09 01:31:00,
2013-05-08 21:36:00,52.9,51.8,29.93,North,0,0.0,0.0,96,0.00,CLR,,0.36,WeatherDisplay:10.37,2013-05-09 01:36:00,
2013-05-08 21:41:00,53.0,51.9,29.93,North,0,0.0,0.0,96,0.00,CLR,,0.36,WeatherDisplay:10.37,2013-05-09 01:41:00,
2013-05-08 21:47:00,53.1,52.0,29.93,North,0,0.0,0.0,96,0.00,CLR,,0.36,WeatherDisplay:10.37,2013-05-09 01:47:00,
2013-05-08 21:52:00,53.0,51.9,29.93,North,0,0.0,0.0,96,0.00,CLR,,0.36,WeatherDisplay:10.37,2013-05-09 01:52:00,
2013-05-08 21:57:00,52.9,51.8,29.93,North,0,0.0,0.0,96,0.00,CLR,,0.36,WeatherDisplay:10.37,2013-05-09 01:57:00,
2013-05-08 22:02:00,52.5,51.4,29.93,North,0,0.0,0.0,96,0.00,CLR,,0.36,WeatherDisplay:10.37,2013-05-09 02:02:00,
2013-05-08 22:07:00,52.3,51.2,29.93,North,0,0.0,0.0,96,0.00,CLR,,0.36,WeatherDisplay:10.37,2013-05-09 02:07:00,
2013-05-08 22:12:00,52.0,50.9,29.94,North,0,0.0,0.0,96,0.00,CLR,,0.36,WeatherDisplay:10.37,2013-05-09 02:12:00,
2013-05-08 22:17:00,51.8,50.7,29.94,North,0,0.0,0.0,96,0.00,CLR,,0.36,WeatherDisplay:10.37,2013-05-09 02:17:00,
2013-05-08 22:22:00,51.7,50.6,29.94,North,0,0.0,0.0,96,0.00,CLR,,0.36,WeatherDisplay:10.37,2013-05-09 02:22:00,
2013-05-08 22:27:00,51.7,50.6,29.94,North,0,0.0,0.0,96,0.00,CLR,,0.36,WeatherDisplay:10.37,2013-05-09 02:27:00,
2013-05-08 22:32:00,51.7,50.9,29.94,North,0,0.0,0.0,97,0.00,CLR,,0.36,WeatherDisplay:10.37,2013-05-09 02:32:00,
2013-05-08 22:37:00,51.6,50.8,29.95,North,0,0.0,0.0,97,0.00,CLR,,0.36,WeatherDisplay:10.37,2013-05-09 02:37:00,
2013-05-08 22:42:00,51.3,50.5,29.94,North,0,0.0,0.0,97,0.00,CLR,,0.36,WeatherDisplay:10.37,2013-05-09 02:42:00,
2013-05-08 22:47:00,51.3,50.5,29.94,North,0,0.0,0.0,97,0.00,CLR,,0.36,WeatherDisplay:10.37,2013-05-09 02:47:00,
2013-05-08 22:52:00,51.2,50.4,29.94,North,0,0.0,0.0,97,0.00,CLR,,0.36,WeatherDisplay:10.37,2013-05-09 02:52:00,
2013-05-08 22:57:00,51.1,50.3,29.94,North,0,0.0,0.0,97,0.00,CLR,,0.36,WeatherDisplay:10.37,2013-05-09 02:57:00,
2013-05-08 23:02:00,51.0,50.2,29.94,North,0,0.0,0.0,97,0.00,CLR,,0.36,WeatherDisplay:10.37,2013-05-09 03:02:00,
2013-05-08 23:07:00,51.0,50.2,29.93,North,0,0.0,0.0,97,0.00,CLR,,0.36,WeatherDisplay:10.37,2013-05-09 03:07:00,
2013-05-08 23:12:00,51.0,50.2,29.93,North,0,0.0,0.0,97,0.00,CLR,,0.36,WeatherDisplay:10.37,2013-05-09 03:12:00,
2013-05-08 23:17:00,51.2,50.4,29.93,North,0,0.0,0.0,97,0.00,CLR,,0.36,WeatherDisplay:10.37,2013-05-09 03:17:00,
2013-05-08 23:22:00,51.2,50.4,29.93,North,0,0.0,0.0,97,0.00,CLR,,0.36,WeatherDisplay:10.37,2013-05-09 03:22:00,
2013-05-08 23:27:00,51.3,50.5,29.93,North,0,0.0,0.0,97,0.00,CLR,,0.36,WeatherDisplay:10.37,2013-05-09 03:27:00,
2013-05-08 23:32:00,51.1,50.3,29.93,North,0,0.0,0.0,97,0.00,CLR,,0.36,WeatherDisplay:10.37,2013-05-09 03:32:00,
2013-05-08 23:37:00,51.1,50.3,29.94,North,0,0.0,0.0,97,0.00,CLR,,0.36,WeatherDisplay:10.37,2013-05-09 03:37:00,
2013-05-08 23:42:00,51.1,50.3,29.93,North,0,0.0,0.0,97,0.00,CLR,,0.36,WeatherDisplay:10.37,2013-05-09 03:42:00,
2013-05-08 23:47:00,51.0,50.2,29.94,North,0,0.0,0.0,97,0.00,CLR,,0.36,WeatherDisplay:10.37,2013-05-09 03:47:00,
2013-05-08 23:52:00,51.0,50.2,29.94,North,0,0.0,0.0,97,0.00,CLR,,0.36,WeatherDisplay:10.37,2013-05-09 03:52:00,
2013-05-08 23:57:00,51.0,50.2,29.93,North,0,0.0,0.0,97,0.00,CLR,,0.36,WeatherDisplay:10.37,2013-05-09 03:57:00,